Main page
METAR-TAF:

METAR-TAF

Airports :

Tarvisio, Italy

latitude: 46-30N, longitude: 013-35E, elevation: 777 m

Current weather observation

The report was made 53 minutes ago, at 06:55 UTC
Calm wind
Temperature -1°C
Humidity 86%
Pressure 1020 hPa
Visibility 10 km or more
Few clouds at a height of 2500 ft

METAR: LIVO 150655Z 00000KT 9999 FEW025 M01/M03 Q1020 RMK FEW VIS MIN 9999

Time: 09:48 (07:48 UTC)


TAF: missing

Weather observations and forecasts of more than 4000 airports (METAR and TAF reports).

The available stations are represented by yellow and red dots on the map.

Hover mouse over dot to see the name of the station.

Then click to see weather observations and forecasts.

To change the map : click on the green buttons with a black cross to zoom in, on the green button with a dash to zoom out, or on the green arrows for adjacent maps.


METAR-TAF: